Time;durP1;ratioP1;P1;durP2;ratioP2;P2;SDS_P1;SDS_P2;PMS_P1;PMS_P2;Temp;Humidity;BMP_temperature;BMP_pressure;BME280_temperature;BME280_humidity;BME280_pressure;Samples;Min_cycle;Max_cycle;Signal;HPM_P1;HPM_P2
2021/09/17 00:01:18;;;;;;;35.25;16.05;;;15.10;99.90;;;;;;5051395;28;20040;-71
2021/09/17 00:03:44;;;;;;;38.78;16.95;;;15.20;99.90;;;;;;5052978;28;20032;-70
2021/09/17 00:06:09;;;;;;;39.08;17.30;;;15.20;99.90;;;;;;5052614;28;20044;-70
2021/09/17 00:08:35;;;;;;;36.83;17.23;;;15.20;99.90;;;;;;5052357;28;20033;-70
2021/09/17 00:11:01;;;;;;;38.90;18.45;;;15.20;99.90;;;;;;5050837;28;20036;-70
2021/09/17 00:13:27;;;;;;;45.33;19.88;;;15.20;99.90;;;;;;5051735;28;20052;-71
2021/09/17 00:15:53;;;;;;;36.90;17.67;;;15.20;99.90;;;;;;5052126;28;20488;-71
2021/09/17 00:18:19;;;;;;;41.30;18.67;;;15.20;99.90;;;;;;5052653;28;20041;-70
2021/09/17 00:20:45;;;;;;;38.88;17.75;;;15.20;99.90;;;;;;5051826;28;20124;-71
2021/09/17 00:23:10;;;;;;;42.40;18.70;;;15.20;99.90;;;;;;5050717;28;20036;-71
2021/09/17 00:25:36;;;;;;;39.35;18.33;;;15.20;99.90;;;;;;5052439;28;20032;-71
2021/09/17 00:28:02;;;;;;;44.70;20.30;;;15.20;99.90;;;;;;5051650;28;20116;-70
2021/09/17 00:30:28;;;;;;;49.05;20.38;;;15.20;99.90;;;;;;5051037;28;20047;-70
2021/09/17 00:32:58;;;;;;;42.38;19.23;;;15.20;99.90;;;;;;5051699;28;20037;-71
2021/09/17 00:35:24;;;;;;;46.10;18.73;;;15.20;99.90;;;;;;5052864;28;20036;-70
2021/09/17 00:37:51;;;;;;;47.08;19.27;;;15.20;99.90;;;;;;5052517;28;20373;-70
2021/09/17 00:40:17;;;;;;;41.75;18.25;;;15.20;99.90;;;;;;5051568;28;20443;-71
2021/09/17 00:42:43;;;;;;;48.22;20.90;;;15.20;99.90;;;;;;5048213;28;20028;-70
2021/09/17 00:45:11;;;;;;;45.30;19.40;;;15.30;99.90;;;;;;5051993;28;20029;-71
2021/09/17 00:47:38;;;;;;;44.47;20.25;;;15.30;99.90;;;;;;5052370;28;20033;-70
2021/09/17 00:50:06;;;;;;;49.55;19.67;;;15.30;99.90;;;;;;5049609;28;20041;-71
2021/09/17 00:52:35;;;;;;;49.67;19.90;;;15.30;99.90;;;;;;5052126;28;20373;-71
2021/09/17 00:55:01;;;;;;;39.65;17.95;;;15.30;99.90;;;;;;5051754;28;20044;-71
2021/09/17 00:57:26;;;;;;;44.03;20.10;;;15.30;99.90;;;;;;5050327;28;20343;-70
2021/09/17 00:59:52;;;;;;;39.47;18.10;;;15.30;99.90;;;;;;5050212;28;20053;-71
2021/09/17 01:02:18;;;;;;;41.75;18.77;;;15.30;99.90;;;;;;5051396;28;20041;-71
2021/09/17 01:04:44;;;;;;;40.95;19.73;;;15.40;99.90;;;;;;5050783;28;20029;-71
2021/09/17 01:07:10;;;;;;;45.67;19.25;;;15.30;99.90;;;;;;5051200;28;20040;-71
2021/09/17 01:09:37;;;;;;;47.08;19.75;;;15.40;99.90;;;;;;5049011;28;20041;-71
2021/09/17 01:12:05;;;;;;;46.15;19.90;;;15.40;99.90;;;;;;5050019;28;20525;-71
2021/09/17 01:14:33;;;;;;;39.83;19.33;;;15.40;99.90;;;;;;5049692;28;20043;-71
2021/09/17 01:16:58;;;;;;;53.85;20.02;;;15.40;99.90;;;;;;5050406;28;20033;-70
2021/09/17 01:19:24;;;;;;;42.90;19.77;;;15.40;99.90;;;;;;5049669;28;20033;-71
2021/09/17 01:21:59;;;;;;;46.13;19.90;;;15.40;99.90;;;;;;5051601;28;20033;-71
2021/09/17 01:24:26;;;;;;;42.13;19.95;;;15.40;99.90;;;;;;5050488;28;20036;-71
2021/09/17 01:26:52;;;;;;;46.65;21.38;;;15.40;99.90;;;;;;5049823;28;20040;-71
2021/09/17 01:29:18;;;;;;;44.67;19.70;;;15.30;99.90;;;;;;5050159;28;20041;-71
2021/09/17 01:31:44;;;;;;;44.72;20.40;;;15.40;99.90;;;;;;5050971;28;20465;-71
2021/09/17 01:34:10;;;;;;;37.95;18.70;;;15.40;99.90;;;;;;5048938;28;20048;-71
2021/09/17 01:36:36;;;;;;;40.42;19.38;;;15.30;99.90;;;;;;5050954;28;20025;-71
2021/09/17 01:39:03;;;;;;;40.35;19.05;;;15.30;99.90;;;;;;5049549;28;20037;-70
2021/09/17 01:41:29;;;;;;;47.95;21.73;;;15.30;99.90;;;;;;5048894;28;20033;-71
2021/09/17 01:43:55;;;;;;;45.30;19.20;;;15.30;99.90;;;;;;5049653;28;20447;-71
2021/09/17 01:46:21;;;;;;;42.45;19.27;;;15.30;99.90;;;;;;5049533;28;20037;-71
2021/09/17 01:48:47;;;;;;;41.40;19.48;;;15.30;99.90;;;;;;5049301;28;20175;-71
2021/09/17 01:51:14;;;;;;;43.03;19.17;;;15.40;99.90;;;;;;5050581;28;20655;-71
2021/09/17 01:53:40;;;;;;;45.65;20.25;;;15.40;99.90;;;;;;5045247;28;20093;-71
2021/09/17 01:56:06;;;;;;;43.38;19.55;;;15.30;99.90;;;;;;5051165;28;20025;-70
2021/09/17 01:58:32;;;;;;;44.70;20.23;;;15.40;99.90;;;;;;5049927;28;20029;-71
2021/09/17 02:00:58;;;;;;;48.75;21.50;;;15.40;99.90;;;;;;5050419;28;20033;-71
2021/09/17 02:03:24;;;;;;;45.85;19.60;;;15.40;99.90;;;;;;5049505;28;20040;-71
2021/09/17 02:05:50;;;;;;;42.47;20.08;;;15.40;99.90;;;;;;5048785;28;20488;-71
2021/09/17 02:08:15;;;;;;;48.00;19.65;;;15.40;99.90;;;;;;5049223;28;20033;-71
2021/09/17 02:10:41;;;;;;;44.22;19.77;;;15.40;99.90;;;;;;5048663;28;20040;-71
2021/09/17 02:13:07;;;;;;;42.92;19.80;;;15.40;99.90;;;;;;5047845;28;20040;-71
2021/09/17 02:15:33;;;;;;;43.85;20.17;;;15.40;99.90;;;;;;5050183;28;20350;-71
2021/09/17 02:17:59;;;;;;;47.70;20.77;;;15.40;99.90;;;;;;5049087;28;20029;-71
2021/09/17 02:20:25;;;;;;;42.95;20.42;;;15.40;99.90;;;;;;5048289;28;20033;-71
2021/09/17 02:22:51;;;;;;;46.55;20.17;;;15.40;99.90;;;;;;5048643;28;20037;-71
2021/09/17 02:25:16;;;;;;;45.80;21.08;;;15.40;99.90;;;;;;5048375;28;20319;-71
2021/09/17 02:27:42;;;;;;;48.90;21.35;;;15.40;99.90;;;;;;5048843;28;20041;-71
2021/09/17 02:30:10;;;;;;;44.97;20.50;;;15.50;99.90;;;;;;5050148;28;20041;-71
2021/09/17 02:32:36;;;;;;;52.72;20.80;;;15.50;99.90;;;;;;5049349;28;20044;-71
2021/09/17 02:35:02;;;;;;;47.10;21.90;;;15.50;99.90;;;;;;5048716;28;20032;-71
2021/09/17 02:37:28;;;;;;;46.38;20.38;;;15.50;99.90;;;;;;5047839;28;20040;-71
2021/09/17 02:39:54;;;;;;;48.58;20.10;;;15.50;99.90;;;;;;5049450;28;20079;-71
2021/09/17 02:42:19;;;;;;;44.00;20.10;;;15.50;99.90;;;;;;5048160;28;20040;-71
2021/09/17 02:44:45;;;;;;;43.58;21.00;;;15.50;99.90;;;;;;5050113;28;20068;-71
2021/09/17 02:47:11;;;;;;;50.15;21.38;;;15.50;99.90;;;;;;5048432;28;20036;-71
2021/09/17 02:49:37;;;;;;;51.10;22.48;;;15.50;99.90;;;;;;5046044;28;20596;-70
2021/09/17 02:52:03;;;;;;;45.72;20.67;;;15.50;99.90;;;;;;5046466;28;20048;-71
2021/09/17 02:54:29;;;;;;;47.53;20.90;;;15.50;99.90;;;;;;5047602;28;20511;-71
2021/09/17 02:56:54;;;;;;;52.58;22.58;;;15.50;99.90;;;;;;5046688;28;20033;-71
2021/09/17 02:59:20;;;;;;;51.35;22.08;;;15.50;99.90;;;;;;5046540;28;20063;-71
2021/09/17 03:01:46;;;;;;;51.75;22.05;;;15.50;99.90;;;;;;5047454;28;20033;-71
2021/09/17 03:04:12;;;;;;;53.72;22.27;;;15.50;99.90;;;;;;5046542;28;20037;-71
2021/09/17 03:06:37;;;;;;;49.65;21.98;;;15.60;99.90;;;;;;5047595;28;20035;-71
2021/09/17 03:09:03;;;;;;;46.97;20.42;;;15.50;99.90;;;;;;5047314;28;20033;-71
2021/09/17 03:11:29;;;;;;;50.08;20.98;;;15.60;99.90;;;;;;5047868;28;20548;-71
2021/09/17 03:13:55;;;;;;;52.10;21.42;;;15.60;99.90;;;;;;5047028;28;20029;-71
2021/09/17 03:16:20;;;;;;;48.45;21.55;;;15.60;99.90;;;;;;5047548;28;20029;-71
2021/09/17 03:18:46;;;;;;;54.55;21.95;;;15.60;99.90;;;;;;5047710;28;20029;-71
2021/09/17 03:21:12;;;;;;;52.42;20.95;;;15.60;99.90;;;;;;5049580;28;20481;-71
2021/09/17 03:23:37;;;;;;;50.92;21.65;;;15.60;99.90;;;;;;5049500;28;20029;-71
2021/09/17 03:26:04;;;;;;;47.22;20.95;;;15.70;99.90;;;;;;5046134;28;20095;-71
2021/09/17 03:28:30;;;;;;;50.92;21.13;;;15.70;99.90;;;;;;5047179;28;20040;-72
2021/09/17 03:30:56;;;;;;;47.08;20.25;;;15.70;99.90;;;;;;5049599;28;20029;-71
2021/09/17 03:33:21;;;;;;;55.05;23.20;;;15.70;99.90;;;;;;5050163;28;20601;-71
2021/09/17 03:35:47;;;;;;;50.65;22.25;;;15.60;99.90;;;;;;5048937;28;20135;-71
2021/09/17 03:38:13;;;;;;;47.35;21.75;;;15.60;99.90;;;;;;5049341;28;20033;-71
2021/09/17 03:40:40;;;;;;;47.80;22.10;;;15.60;99.90;;;;;;5048703;28;20040;-70
2021/09/17 03:43:06;;;;;;;52.88;22.13;;;15.60;99.90;;;;;;5049591;28;20032;-71
2021/09/17 03:45:34;;;;;;;54.08;22.00;;;15.60;99.90;;;;;;5045022;28;20121;-71
2021/09/17 03:48:08;;;;;;;53.53;22.40;;;15.60;99.90;;;;;;5048011;28;20029;-71
2021/09/17 03:50:34;;;;;;;44.85;20.92;;;15.60;99.90;;;;;;5044067;28;20063;-71
2021/09/17 03:53:00;;;;;;;50.70;21.30;;;15.60;99.90;;;;;;5049128;28;20493;-71
2021/09/17 03:55:26;;;;;;;51.05;21.02;;;15.60;99.90;;;;;;5047696;28;20044;-71
2021/09/17 03:57:55;;;;;;;46.50;20.73;;;15.70;99.90;;;;;;5048797;28;20043;-71
2021/09/17 04:00:21;;;;;;;47.80;21.85;;;15.70;99.90;;;;;;5048732;28;20037;-71
2021/09/17 04:02:47;;;;;;;53.45;22.25;;;15.70;99.90;;;;;;5047188;28;20029;-71
2021/09/17 04:05:12;;;;;;;50.03;21.30;;;15.70;99.90;;;;;;5049149;28;20111;-71
2021/09/17 04:07:40;;;;;;;51.90;22.42;;;15.70;99.90;;;;;;5048727;28;20036;-72
2021/09/17 04:10:07;;;;;;;51.33;22.20;;;15.70;99.90;;;;;;5048795;28;20037;-71
2021/09/17 04:12:33;;;;;;;43.97;19.58;;;15.70;99.90;;;;;;5048984;28;20043;-71
2021/09/17 04:14:59;;;;;;;55.60;21.70;;;15.70;99.90;;;;;;5047418;28;20049;-71
2021/09/17 04:17:25;;;;;;;51.47;20.52;;;15.70;99.90;;;;;;5048925;28;20044;-71
2021/09/17 04:19:51;;;;;;;48.17;20.33;;;15.70;99.90;;;;;;5048040;28;20037;-71
2021/09/17 04:22:17;;;;;;;52.20;20.40;;;15.70;99.90;;;;;;5049049;28;20033;-70
2021/09/17 04:24:43;;;;;;;46.65;19.70;;;15.70;99.90;;;;;;5049571;28;20388;-71
2021/09/17 04:27:08;;;;;;;49.78;21.88;;;15.60;99.90;;;;;;5052289;28;20063;-71
2021/09/17 04:29:34;;;;;;;52.55;22.25;;;15.60;99.90;;;;;;5050463;28;20076;-70
2021/09/17 04:32:00;;;;;;;43.95;20.75;;;15.70;99.90;;;;;;5051909;28;20037;-71
2021/09/17 04:34:27;;;;;;;49.35;21.27;;;15.70;99.90;;;;;;5052042;28;20423;-71
2021/09/17 04:36:53;;;;;;;43.60;20.27;;;15.70;99.90;;;;;;5051760;28;20388;-71
2021/09/17 04:39:18;;;;;;;41.63;20.05;;;15.70;99.90;;;;;;5050250;28;20039;-71
2021/09/17 04:41:45;;;;;;;45.05;20.15;;;15.70;99.90;;;;;;5060340;22;20040;-61
2021/09/17 04:44:10;;;;;;;52.58;20.33;;;15.70;99.90;;;;;;5049019;28;20032;-62
2021/09/17 04:46:36;;;;;;;47.22;19.25;;;15.70;99.90;;;;;;5049165;28;20120;-63
2021/09/17 04:49:02;;;;;;;38.70;18.65;;;15.70;99.90;;;;;;5050654;28;20029;-61
2021/09/17 04:51:28;;;;;;;45.72;19.25;;;15.70;99.90;;;;;;5034808;28;20489;-62
2021/09/17 04:53:53;;;;;;;41.90;19.52;;;15.70;99.90;;;;;;5026915;28;20178;-61
2021/09/17 04:56:19;;;;;;;50.97;20.98;;;15.70;99.90;;;;;;5029341;28;20044;-61
2021/09/17 04:58:45;;;;;;;39.80;18.60;;;15.70;99.90;;;;;;5029531;28;20057;-61
2021/09/17 05:01:11;;;;;;;45.92;19.10;;;15.60;99.90;;;;;;5028679;28;20397;-61
2021/09/17 05:03:37;;;;;;;46.60;19.73;;;15.70;99.90;;;;;;5028723;28;20037;-63
2021/09/17 05:06:02;;;;;;;46.10;18.95;;;15.70;99.90;;;;;;5029907;28;20037;-62
2021/09/17 05:08:28;;;;;;;45.40;19.35;;;15.70;99.90;;;;;;5030005;28;20060;-62
2021/09/17 05:10:54;;;;;;;42.53;18.75;;;15.70;99.90;;;;;;5027686;28;20025;-63
2021/09/17 05:13:19;;;;;;;43.60;20.15;;;15.70;99.90;;;;;;5029858;28;20073;-62
2021/09/17 05:15:45;;;;;;;45.38;19.15;;;15.70;99.90;;;;;;5029586;28;20037;-62
2021/09/17 05:18:11;;;;;;;42.78;18.40;;;15.70;99.90;;;;;;5029550;28;20037;-62
2021/09/17 05:20:37;;;;;;;41.70;18.30;;;15.70;99.90;;;;;;5029955;28;20087;-63
2021/09/17 05:23:03;;;;;;;41.08;18.98;;;15.70;99.90;;;;;;5029739;28;20037;-61
2021/09/17 05:25:28;;;;;;;44.38;17.98;;;15.70;99.90;;;;;;5028173;28;20507;-61
2021/09/17 05:27:54;;;;;;;44.30;19.23;;;15.70;99.90;;;;;;5029362;28;20032;-66
2021/09/17 05:30:20;;;;;;;46.72;19.38;;;15.70;99.90;;;;;;5029298;28;20491;-61
2021/09/17 05:32:46;;;;;;;43.88;19.25;;;15.70;99.90;;;;;;5029840;28;20038;-62
2021/09/17 05:35:11;;;;;;;46.38;19.98;;;15.70;99.90;;;;;;5029446;28;20033;-63
2021/09/17 05:37:37;;;;;;;43.22;17.88;;;15.70;99.90;;;;;;5029771;28;20061;-62
2021/09/17 05:40:07;;;;;;;41.63;18.25;;;15.70;99.90;;;;;;5028629;28;20232;-61
2021/09/17 05:42:33;;;;;;;42.28;18.30;;;15.70;99.90;;;;;;5029126;28;20135;-62
2021/09/17 05:44:59;;;;;;;41.03;18.77;;;15.70;99.90;;;;;;5029117;28;20539;-64
2021/09/17 05:47:24;;;;;;;45.13;18.38;;;15.70;99.90;;;;;;5028264;28;20206;-61
2021/09/17 05:49:50;;;;;;;41.10;18.58;;;15.70;99.90;;;;;;5029149;28;20045;-62
2021/09/17 05:52:17;;;;;;;43.58;19.17;;;15.70;99.90;;;;;;5029344;28;20068;-62
2021/09/17 05:54:43;;;;;;;40.03;17.77;;;15.70;99.90;;;;;;5028584;28;20484;-62
2021/09/17 05:57:08;;;;;;;43.03;17.98;;;15.70;99.90;;;;;;5028480;28;20035;-63
2021/09/17 05:59:34;;;;;;;40.42;17.13;;;15.70;99.90;;;;;;5029359;28;20049;-62
2021/09/17 06:02:00;;;;;;;35.70;16.05;;;15.80;99.90;;;;;;5029383;28;20088;-63
2021/09/17 06:04:26;;;;;;;37.13;16.25;;;15.80;99.90;;;;;;5029280;28;20033;-62
2021/09/17 06:06:51;;;;;;;41.53;18.17;;;15.80;99.90;;;;;;5028012;28;20037;-61
2021/09/17 06:09:17;;;;;;;39.00;16.45;;;15.80;99.90;;;;;;5028886;28;20034;-62
2021/09/17 06:11:43;;;;;;;37.92;16.35;;;15.80;99.90;;;;;;5027798;28;20037;-62
2021/09/17 06:14:08;;;;;;;39.85;17.33;;;15.80;99.90;;;;;;5027761;28;20082;-63
2021/09/17 06:16:34;;;;;;;42.28;15.88;;;15.80;99.90;;;;;;5029275;28;20026;-62
2021/09/17 06:19:03;;;;;;;37.47;16.77;;;15.90;99.90;;;;;;5028680;28;20034;-63
2021/09/17 06:21:31;;;;;;;38.78;15.75;;;15.90;99.90;;;;;;5028847;28;20183;-62
2021/09/17 06:23:57;;;;;;;37.25;16.08;;;15.90;99.90;;;;;;5029128;28;20026;-61
2021/09/17 06:26:23;;;;;;;34.03;15.48;;;15.90;99.90;;;;;;5024606;28;20037;-61
2021/09/17 06:28:48;;;;;;;41.92;16.73;;;16.00;99.90;;;;;;5028700;28;20116;-62
2021/09/17 06:31:15;;;;;;;36.25;15.93;;;15.90;99.90;;;;;;5028357;28;20053;-62
2021/09/17 06:33:40;;;;;;;34.53;15.70;;;16.00;99.90;;;;;;5028893;28;20080;-61
2021/09/17 06:36:06;;;;;;;36.47;15.57;;;16.00;99.90;;;;;;5028551;28;20485;-61
2021/09/17 06:38:32;;;;;;;35.35;15.07;;;16.10;99.90;;;;;;5028242;28;20042;-62
2021/09/17 06:40:58;;;;;;;32.50;15.05;;;16.10;99.90;;;;;;5026738;28;20404;-62
2021/09/17 06:43:23;;;;;;;32.97;14.88;;;16.10;99.90;;;;;;5027126;28;20041;-61
2021/09/17 06:45:49;;;;;;;31.20;14.32;;;16.10;99.90;;;;;;5028860;28;20484;-61
2021/09/17 06:48:17;;;;;;;32.22;14.45;;;16.10;99.90;;;;;;5027346;28;20034;-63
2021/09/17 06:50:43;;;;;;;29.92;14.55;;;16.10;99.90;;;;;;5028459;28;20026;-61
2021/09/17 06:53:09;;;;;;;30.70;15.27;;;16.20;99.90;;;;;;5028542;28;20029;-62
2021/09/17 06:55:34;;;;;;;30.40;14.18;;;16.20;99.90;;;;;;5027789;28;20044;-61
2021/09/17 06:58:02;;;;;;;39.58;15.73;;;16.20;99.90;;;;;;5028381;28;20051;-62
2021/09/17 07:00:30;;;;;;;30.10;13.98;;;16.20;99.90;;;;;;5028298;28;20491;-62
2021/09/17 07:02:56;;;;;;;30.10;13.57;;;16.30;99.90;;;;;;5028326;28;20037;-62
2021/09/17 07:05:24;;;;;;;27.88;13.07;;;16.30;99.90;;;;;;5028182;28;20037;-62
2021/09/17 07:07:50;;;;;;;29.40;12.57;;;16.50;99.90;;;;;;5026872;28;20048;-61
2021/09/17 07:10:19;;;;;;;31.83;14.15;;;16.60;99.90;;;;;;5027720;28;20049;-61
2021/09/17 07:12:46;;;;;;;29.85;13.52;;;16.60;99.90;;;;;;5027609;28;20709;-61
2021/09/17 07:15:13;;;;;;;37.38;12.95;;;16.70;99.90;;;;;;5028909;28;20029;-62
2021/09/17 07:17:40;;;;;;;25.88;12.07;;;16.70;99.90;;;;;;5042936;28;20033;-62
2021/09/17 07:20:06;;;;;;;30.20;12.38;;;16.80;99.90;;;;;;5039613;28;20036;-60
2021/09/17 07:22:33;;;;;;;30.10;12.10;;;16.90;99.90;;;;;;5042033;28;20033;-61
2021/09/17 07:24:58;;;;;;;21.25;11.15;;;17.00;99.90;;;;;;5043527;28;20105;-62
2021/09/17 07:27:24;;;;;;;27.75;12.43;;;17.00;99.90;;;;;;5042853;28;20484;-61
2021/09/17 07:29:50;;;;;;;20.05;11.02;;;17.10;99.90;;;;;;5043981;28;20041;-62
2021/09/17 07:32:16;;;;;;;22.58;11.48;;;17.20;99.90;;;;;;5042163;28;20029;-61
2021/09/17 07:34:41;;;;;;;23.25;11.98;;;17.20;99.90;;;;;;5041962;28;20112;-61
2021/09/17 07:37:07;;;;;;;21.20;11.05;;;17.20;99.90;;;;;;5042095;28;20029;-63
2021/09/17 07:39:33;;;;;;;19.02;10.18;;;17.30;99.90;;;;;;5041509;28;20025;-61
2021/09/17 07:41:59;;;;;;;24.80;10.98;;;17.20;99.90;;;;;;5038046;28;20433;-61
2021/09/17 07:44:24;;;;;;;27.40;11.38;;;17.30;99.90;;;;;;5040530;28;20044;-61
2021/09/17 07:46:50;;;;;;;20.02;10.27;;;17.40;99.90;;;;;;5027616;28;20434;-62
2021/09/17 07:49:16;;;;;;;21.15;10.25;;;17.50;99.90;;;;;;5035970;28;20135;-62
2021/09/17 07:51:41;;;;;;;23.23;10.60;;;17.70;99.90;;;;;;5039736;28;20108;-62
2021/09/17 07:54:07;;;;;;;25.23;10.57;;;18.00;99.90;;;;;;5028774;28;20386;-62
2021/09/17 07:56:33;;;;;;;17.85;9.88;;;18.10;99.90;;;;;;5025814;28;20040;-63
2021/09/17 07:58:59;;;;;;;18.67;10.10;;;18.30;99.90;;;;;;5021651;28;20432;-62
2021/09/17 08:01:24;;;;;;;21.77;10.38;;;18.30;99.90;;;;;;5029132;28;20047;-62
2021/09/17 08:03:50;;;;;;;21.67;10.18;;;18.40;99.90;;;;;;5028394;28;20041;-62
2021/09/17 08:06:16;;;;;;;19.23;10.57;;;18.50;99.90;;;;;;5029836;28;20030;-62
2021/09/17 08:08:41;;;;;;;20.55;10.55;;;18.50;99.90;;;;;;5025434;28;20026;-62
2021/09/17 08:11:08;;;;;;;24.77;11.63;;;18.60;99.90;;;;;;5027341;28;20033;-61
2021/09/17 08:13:34;;;;;;;20.08;10.40;;;18.50;99.90;;;;;;5028443;28;20133;-61
2021/09/17 08:15:59;;;;;;;23.23;11.57;;;18.50;99.90;;;;;;5031676;28;20060;-61
2021/09/17 08:18:25;;;;;;;28.55;11.45;;;18.70;99.90;;;;;;5027297;28;20192;-61
2021/09/17 08:20:54;;;;;;;22.75;11.60;;;18.70;99.90;;;;;;5027029;28;20481;-61
2021/09/17 08:23:20;;;;;;;22.63;10.93;;;18.70;99.90;;;;;;5028930;28;20042;-62
2021/09/17 08:25:47;;;;;;;24.10;11.23;;;18.70;99.90;;;;;;5024522;28;20042;-61
2021/09/17 08:28:13;;;;;;;21.23;10.63;;;18.70;99.90;;;;;;5029413;28;20044;-62
2021/09/17 08:30:39;;;;;;;26.83;12.32;;;18.80;99.90;;;;;;5028975;28;20037;-61
2021/09/17 08:33:04;;;;;;;25.40;11.45;;;18.90;99.90;;;;;;5037860;28;20033;-61
2021/09/17 08:35:30;;;;;;;26.58;12.48;;;18.90;99.90;;;;;;5034056;28;20030;-62
2021/09/17 08:37:56;;;;;;;23.27;11.80;;;19.00;99.90;;;;;;5028391;28;20050;-61
2021/09/17 08:40:21;;;;;;;23.35;12.32;;;19.00;99.90;;;;;;5028897;28;20033;-62
2021/09/17 08:42:48;;;;;;;26.15;12.32;;;19.10;99.90;;;;;;5027951;28;20560;-62
2021/09/17 08:45:14;;;;;;;22.70;11.85;;;19.20;99.90;;;;;;5029536;28;20041;-65
2021/09/17 08:47:40;;;;;;;23.90;11.68;;;19.20;99.90;;;;;;5031823;28;20041;-63
2021/09/17 08:50:06;;;;;;;27.08;11.73;;;19.20;99.90;;;;;;5029257;28;20037;-62
2021/09/17 08:52:32;;;;;;;24.67;12.13;;;19.20;99.90;;;;;;5029289;28;20061;-62
2021/09/17 08:55:02;;;;;;;22.15;11.25;;;19.20;99.90;;;;;;5030946;28;20084;-66
2021/09/17 08:57:28;;;;;;;;;;;19.20;99.90;;;;;;5031287;28;20064;-61
2021/09/17 08:59:54;;;;;;;22.88;11.13;;;19.20;99.90;;;;;;5029769;28;20435;-62
2021/09/17 09:02:25;;;;;;;24.35;12.38;;;19.30;99.90;;;;;;5030953;28;20519;-62
2021/09/17 09:05:03;;;;;;;25.15;12.57;;;19.30;99.90;;;;;;5030157;28;20055;-61
2021/09/17 09:07:40;;;;;;;30.52;11.95;;;19.40;99.90;;;;;;5030239;28;20056;-64
2021/09/17 09:10:08;;;;;;;26.80;12.43;;;19.50;99.90;;;;;;5028909;28;20038;-61
2021/09/17 09:12:33;;;;;;;23.83;11.73;;;19.60;99.90;;;;;;5032484;28;20036;-61
2021/09/17 09:15:21;;;;;;;23.98;12.10;;;19.90;99.90;;;;;;5032054;28;20113;-63
2021/09/17 09:17:48;;;;;;;20.60;11.45;;;20.30;99.90;;;;;;5029695;28;20558;-62
2021/09/17 09:20:19;;;;;;;20.95;11.75;;;20.60;99.90;;;;;;5029845;28;20026;-61
2021/09/17 09:23:11;;;;;;;24.92;11.38;;;20.70;99.90;;;;;;5029357;28;20365;-62
2021/09/17 09:25:50;;;;;;;24.00;12.10;;;20.60;99.90;;;;;;5034576;28;20040;-62
2021/09/17 09:28:25;;;;;;;24.13;12.38;;;20.70;99.90;;;;;;5032786;28;20033;-62
2021/09/17 09:30:53;;;;;;;20.92;10.88;;;20.70;99.90;;;;;;5032496;28;20037;-61
2021/09/17 09:33:48;;;;;;;23.80;11.77;;;20.70;99.90;;;;;;5036445;28;20034;-62
2021/09/17 09:36:14;;;;;;;24.60;12.57;;;20.70;99.90;;;;;;5032172;28;20393;-64
2021/09/17 09:38:54;;;;;;;25.80;13.70;;;20.70;99.90;;;;;;5035630;28;20048;-61
2021/09/17 09:41:27;;;;;;;23.60;13.52;;;20.80;99.90;;;;;;5032708;28;20041;-61
2021/09/17 09:43:59;;;;;;;23.33;12.77;;;20.90;99.90;;;;;;5033952;28;20044;-63
2021/09/17 09:46:41;;;;;;;23.02;12.18;;;21.10;99.90;;;;;;5034636;28;20580;-63
2021/09/17 09:49:26;;;;;;;28.98;13.32;;;21.20;99.90;;;;;;5040729;28;20397;-64
2021/09/17 09:52:07;;;;;;;25.17;12.93;;;21.30;99.90;;;;;;5032824;28;20026;-62
2021/09/17 09:54:35;;;;;;;23.60;11.98;;;21.40;99.90;;;;;;5029201;28;20381;-61
2021/09/17 09:57:04;;;;;;;22.30;11.77;;;21.30;99.90;;;;;;5029180;28;20442;-61
2021/09/17 09:59:33;;;;;;;20.35;9.80;;;21.30;99.90;;;;;;5027752;28;20033;-62
2021/09/17 10:02:03;;;;;;;17.25;8.82;;;21.40;99.90;;;;;;5029284;28;20126;-62
2021/09/17 10:04:31;;;;;;;20.45;9.95;;;21.30;99.90;;;;;;5029403;28;20044;-62
2021/09/17 10:07:05;;;;;;;23.90;12.05;;;21.40;99.90;;;;;;5028279;28;20040;-62
2021/09/17 10:09:33;;;;;;;23.33;10.10;;;21.40;99.90;;;;;;5029050;28;20365;-61
2021/09/17 10:11:59;;;;;;;22.60;11.73;;;21.40;99.90;;;;;;5027500;28;20021;-64
2021/09/17 10:14:27;;;;;;;22.25;10.48;;;21.40;99.90;;;;;;5029419;28;20554;-62
2021/09/17 10:16:54;;;;;;;24.23;11.40;;;21.50;99.90;;;;;;5028924;28;20516;-61
2021/09/17 10:19:21;;;;;;;23.55;11.88;;;21.50;99.90;;;;;;5029163;28;20088;-62
2021/09/17 10:21:52;;;;;;;23.05;11.80;;;21.60;99.90;;;;;;5027366;28;20533;-61
2021/09/17 10:24:26;;;;;;;24.00;12.30;;;21.60;99.90;;;;;;5029232;28;20061;-62
2021/09/17 10:26:57;;;;;;;26.25;13.18;;;21.60;99.90;;;;;;5028964;28;20083;-63
2021/09/17 10:29:37;;;;;;;25.08;12.70;;;21.60;99.90;;;;;;5029073;28;20036;-63
2021/09/17 10:32:05;;;;;;;27.48;13.40;;;21.60;99.90;;;;;;5028706;28;20029;-62
2021/09/17 10:34:43;;;;;;;32.63;14.30;;;21.60;99.90;;;;;;5028993;28;20030;-61
2021/09/17 10:37:10;;;;;;;31.13;13.55;;;21.70;99.90;;;;;;5024685;28;20040;-61
2021/09/17 10:39:37;;;;;;;26.63;11.95;;;21.70;99.90;;;;;;5028589;28;20124;-61
2021/09/17 10:42:10;;;;;;;31.73;13.05;;;21.70;99.90;;;;;;5028740;28;20041;-60
2021/09/17 10:45:09;;;;;;;30.00;13.80;;;21.80;99.90;;;;;;5028914;28;20042;-61
2021/09/17 10:47:41;;;;;;;26.13;13.65;;;21.70;99.90;;;;;;5026858;28;20042;-61
2021/09/17 10:50:12;;;;;;;29.40;13.95;;;21.60;99.90;;;;;;5026522;28;20511;-60
2021/09/17 10:52:42;;;;;;;27.30;13.88;;;21.40;99.90;;;;;;5027303;28;20037;-62
2021/09/17 10:55:08;;;;;;;33.58;13.77;;;21.40;99.90;;;;;;5024534;28;20265;-61
2021/09/17 10:58:12;;;;;;;27.52;13.00;;;21.40;99.90;;;;;;5028360;28;20029;-60
2021/09/17 11:01:04;;;;;;;31.08;13.88;;;21.50;99.90;;;;;;5024130;28;20464;-61
2021/09/17 11:03:39;;;;;;;28.77;13.02;;;21.40;99.90;;;;;;5026971;28;20057;-60
2021/09/17 11:08:50;;;;;;;23.00;11.50;;;21.50;99.90;;;;;;5025398;28;20396;-60
2021/09/17 11:11:22;;;;;;;;;;;21.50;99.90;;;;;;5029669;28;20037;-61
2021/09/17 11:13:48;;;;;;;23.23;11.07;;;21.50;99.90;;;;;;5029758;28;20000;-61
2021/09/17 11:16:15;;;;;;;25.33;11.85;;;21.60;99.90;;;;;;5031541;28;20040;-60
2021/09/17 11:18:51;;;;;;;26.48;11.85;;;21.70;99.90;;;;;;5030876;28;20079;-60
2021/09/17 11:21:17;;;;;;;23.63;10.32;;;21.80;99.90;;;;;;5028567;28;20493;-61
2021/09/17 11:23:48;;;;;;;23.13;10.50;;;21.70;99.90;;;;;;5026536;28;20030;-62
2021/09/17 11:26:21;;;;;;;23.75;10.35;;;21.90;99.90;;;;;;5028465;28;20064;-60
2021/09/17 11:29:04;;;;;;;23.50;9.82;;;21.90;99.90;;;;;;5027699;28;20048;-63
2021/09/17 11:31:34;;;;;;;20.92;11.13;;;21.80;99.90;;;;;;5027835;28;20099;-60
2021/09/17 11:34:05;;;;;;;25.93;12.37;;;21.90;99.90;;;;;;5030160;28;20049;-62
2021/09/17 11:36:55;;;;;;;22.95;11.23;;;21.90;99.90;;;;;;5030501;28;20032;-60
2021/09/17 11:39:23;;;;;;;22.97;11.30;;;22.00;99.90;;;;;;5022624;28;20046;-61
2021/09/17 11:41:56;;;;;;;26.88;11.50;;;22.10;99.90;;;;;;5031554;28;20091;-60
2021/09/17 11:44:46;;;;;;;20.52;10.73;;;22.10;99.90;;;;;;5032116;28;20060;-61
2021/09/17 11:47:28;;;;;;;24.63;10.15;;;22.10;99.90;;;;;;5039327;28;20106;-60
2021/09/17 11:49:59;;;;;;;22.25;10.90;;;22.20;99.90;;;;;;5039582;28;20025;-61
2021/09/17 11:52:25;;;;;;;22.35;10.93;;;22.30;99.90;;;;;;5042647;28;20119;-60
2021/09/17 11:55:02;;;;;;;21.02;10.20;;;22.40;99.90;;;;;;5043412;28;20052;-61
2021/09/17 11:57:33;;;;;;;21.10;11.07;;;22.40;99.90;;;;;;5042726;28;20108;-61
2021/09/17 11:59:59;;;;;;;22.20;10.95;;;22.30;99.90;;;;;;5039403;28;20041;-60
2021/09/17 12:02:26;;;;;;;20.67;10.50;;;22.20;99.90;;;;;;5031666;28;20040;-61
2021/09/17 12:04:53;;;;;;;18.92;11.02;;;22.00;99.90;;;;;;5031211;28;20036;-61
2021/09/17 12:07:20;;;;;;;19.75;9.57;;;21.90;99.90;;;;;;5031808;28;20044;-61
2021/09/17 12:09:45;;;;;;;19.60;9.70;;;21.80;99.90;;;;;;5031248;28;20036;-60
2021/09/17 12:12:12;;;;;;;17.10;9.23;;;21.80;99.90;;;;;;5031226;28;20029;-60
2021/09/17 12:14:47;;;;;;;15.20;8.38;;;21.90;99.90;;;;;;5031789;28;20018;-60
2021/09/17 12:17:13;;;;;;;15.90;9.25;;;22.00;99.90;;;;;;5022946;28;20025;-60
2021/09/17 12:20:08;;;;;;;22.30;9.45;;;22.10;99.90;;;;;;5028549;28;20049;-60
2021/09/17 12:22:44;;;;;;;12.95;7.45;;;22.30;99.90;;;;;;5025346;28;24173;-61
2021/09/17 12:25:14;;;;;;;17.30;7.57;;;22.50;99.90;;;;;;5025072;28;20088;-67
2021/09/17 12:27:43;;;;;;;12.23;6.78;;;22.70;99.90;;;;;;5028339;28;20033;-61
2021/09/17 12:30:14;;;;;;;16.73;7.30;;;22.60;99.90;;;;;;5032324;28;20388;-62
2021/09/17 12:32:42;;;;;;;13.95;7.03;;;22.50;99.90;;;;;;5037099;28;20484;-61
2021/09/17 12:35:16;;;;;;;12.65;6.30;;;22.40;99.90;;;;;;5028110;28;20064;-60